createdAt,value
2023-01-27T00:01:04.583Z,97077.00
2023-01-27T00:03:31.450Z,97076.00
2023-01-27T00:06:01.097Z,97077.00
2023-01-27T00:08:29.544Z,97067.00
2023-01-27T00:11:18.818Z,97071.00
2023-01-27T00:13:45.711Z,97073.00
2023-01-27T00:16:12.605Z,97070.00
2023-01-27T00:18:39.509Z,97067.00
2023-01-27T00:21:38.423Z,97073.00
2023-01-27T00:24:24.269Z,97074.00
2023-01-27T00:26:51.127Z,97069.00
2023-01-27T00:29:17.905Z,97071.00
2023-01-27T00:32:03.130Z,97067.00
2023-01-27T00:34:29.935Z,97068.00
2023-01-27T00:36:56.784Z,97070.00
2023-01-27T00:39:23.649Z,97070.00
2023-01-27T00:41:50.564Z,97069.00
2023-01-27T00:44:17.538Z,97063.00
2023-01-27T00:46:44.421Z,97069.00
2023-01-27T00:49:13.372Z,97071.00
2023-01-27T00:51:40.882Z,97068.00
2023-01-27T00:54:07.962Z,97067.00
2023-01-27T00:56:35.068Z,97057.00
2023-01-27T00:59:01.963Z,97057.00
2023-01-27T01:01:29.413Z,97064.00
2023-01-27T01:03:58.246Z,97054.00
2023-01-27T01:06:25.201Z,97064.00
2023-01-27T01:08:52.473Z,97067.00
2023-01-27T01:11:21.521Z,97062.00
2023-01-27T01:13:48.741Z,97061.00
2023-01-27T01:16:19.592Z,97069.00
2023-01-27T01:18:47.240Z,97070.00
2023-01-27T01:21:15.082Z,97073.00
2023-01-27T01:23:44.517Z,97084.00
2023-01-27T01:26:14.241Z,97085.00
2023-01-27T01:28:41.085Z,97080.00
2023-01-27T01:31:11.796Z,97083.00
2023-01-27T01:33:39.230Z,97081.00
2023-01-27T01:36:08.721Z,97080.00
2023-01-27T01:38:35.535Z,97077.00
2023-01-27T01:41:02.715Z,97074.00
2023-01-27T01:43:29.484Z,97083.00
2023-01-27T01:46:00.880Z,97079.00
2023-01-27T01:48:35.270Z,97077.00
2023-01-27T01:51:35.384Z,97078.00
2023-01-27T01:54:19.731Z,97073.00
2023-01-27T01:57:06.994Z,97083.00
2023-01-27T01:59:47.383Z,97070.00
2023-01-27T02:02:18.575Z,97078.00
2023-01-27T02:04:59.199Z,97069.00
2023-01-27T02:07:35.752Z,97064.00
2023-01-27T02:10:03.885Z,97073.00
2023-01-27T02:14:59.057Z,97062.00
2023-01-27T02:17:25.975Z,97069.00
2023-01-27T02:20:23.799Z,97062.00
2023-01-27T02:23:16.467Z,97056.00
2023-01-27T02:26:02.552Z,97076.00
2023-01-27T02:28:31.093Z,97063.00
2023-01-27T02:30:58.904Z,97061.00
2023-01-27T02:33:25.837Z,97059.00
2023-01-27T02:36:10.721Z,97061.00
2023-01-27T02:38:50.878Z,97064.00
2023-01-27T02:41:29.520Z,97067.00
2023-01-27T02:43:56.360Z,97050.00
2023-01-27T02:46:23.692Z,97042.00
2023-01-27T02:48:50.548Z,97049.00
2023-01-27T02:51:17.606Z,97046.00
2023-01-27T02:53:44.707Z,97042.00
2023-01-27T02:56:11.518Z,97053.00
2023-01-27T02:58:38.465Z,97057.00
2023-01-27T03:01:05.561Z,97057.00
2023-01-27T03:03:32.331Z,97061.00
2023-01-27T03:05:59.625Z,97051.00
2023-01-27T03:08:26.437Z,97052.00
2023-01-27T03:10:55.717Z,97056.00
2023-01-27T03:13:24.280Z,97044.00
2023-01-27T03:16:11.068Z,97043.00
2023-01-27T03:18:39.055Z,97057.00
2023-01-27T03:21:07.752Z,97046.00
2023-01-27T03:23:34.926Z,97043.00
2023-01-27T03:26:06.777Z,97046.00
2023-01-27T03:28:33.887Z,97036.00
2023-01-27T03:31:02.843Z,97026.00
2023-01-27T03:33:30.029Z,97022.00
2023-01-27T03:36:15.420Z,97038.00
2023-01-27T03:39:00.629Z,97045.00
2023-01-27T03:41:45.872Z,97037.00
2023-01-27T03:44:31.435Z,97040.00
2023-01-27T03:46:58.221Z,97044.00
2023-01-27T03:49:25.001Z,97037.00
2023-01-27T03:51:51.850Z,97042.00
2023-01-27T03:54:19.579Z,97051.00
2023-01-27T03:56:47.873Z,97040.00
2023-01-27T03:59:15.132Z,97041.00
2023-01-27T04:01:43.714Z,97041.00
2023-01-27T04:04:30.123Z,97046.00
2023-01-27T04:07:02.674Z,97055.00
2023-01-27T04:09:33.904Z,97051.00
2023-01-27T04:12:04.619Z,97048.00
2023-01-27T04:14:37.709Z,97050.00
2023-01-27T04:17:18.115Z,97051.00
2023-01-27T04:19:46.393Z,97050.00
2023-01-27T04:22:15.765Z,97052.00
2023-01-27T04:24:43.027Z,97051.00
2023-01-27T04:27:14.143Z,97050.00
2023-01-27T04:29:42.537Z,97051.00
2023-01-27T04:32:12.237Z,97057.00
2023-01-27T04:34:40.346Z,97046.00
2023-01-27T04:37:09.553Z,97058.00
2023-01-27T04:39:36.959Z,97056.00
2023-01-27T04:42:04.189Z,97060.00
2023-01-27T04:44:31.337Z,97057.00
2023-01-27T04:46:58.179Z,97050.00
2023-01-27T04:49:26.716Z,97062.00
2023-01-27T04:51:54.592Z,97066.00
2023-01-27T04:54:21.583Z,97065.00
2023-01-27T04:56:58.873Z,97075.00
2023-01-27T04:59:26.063Z,97065.00
2023-01-27T05:01:52.951Z,97070.00
2023-01-27T05:04:19.871Z,97071.00
2023-01-27T05:06:46.639Z,97069.00
2023-01-27T05:09:13.471Z,97066.00
2023-01-27T05:11:40.272Z,97075.00
2023-01-27T05:14:07.076Z,97076.00
2023-01-27T05:16:33.978Z,97063.00
2023-01-27T05:19:02.042Z,97074.00
2023-01-27T05:21:28.984Z,97075.00
2023-01-27T05:23:55.818Z,97080.00
2023-01-27T05:26:27.885Z,97072.00
2023-01-27T05:28:58.365Z,97077.00
2023-01-27T05:31:29.413Z,97080.00
2023-01-27T05:33:59.066Z,97090.00
2023-01-27T05:36:27.075Z,97090.00
2023-01-27T05:38:55.283Z,97092.00
2023-01-27T05:41:22.853Z,97089.00
2023-01-27T05:43:55.069Z,97097.00
2023-01-27T05:46:29.194Z,97105.00
2023-01-27T05:48:59.815Z,97100.00
2023-01-27T05:51:30.991Z,97103.00
2023-01-27T05:53:57.806Z,97108.00
2023-01-27T05:56:26.538Z,97110.00
2023-01-27T05:58:57.989Z,97115.00
2023-01-27T06:01:28.767Z,97127.00
2023-01-27T06:03:55.915Z,97118.00
2023-01-27T06:06:25.316Z,97120.00
2023-01-27T06:08:52.703Z,97129.00
2023-01-27T06:11:21.393Z,97122.00
2023-01-27T06:13:48.897Z,97123.00
2023-01-27T06:16:18.310Z,97123.00
2023-01-27T06:18:45.885Z,97123.00
2023-01-27T06:21:14.700Z,97126.00
2023-01-27T06:23:41.945Z,97124.00
2023-01-27T06:26:16.248Z,97128.00
2023-01-27T06:28:43.795Z,97133.00
2023-01-27T06:31:18.137Z,97126.00
2023-01-27T06:33:45.238Z,97132.00
2023-01-27T06:36:15.498Z,97134.00
2023-01-27T06:38:42.488Z,97139.00
2023-01-27T06:41:09.386Z,97138.00
2023-01-27T06:43:36.207Z,97139.00
2023-01-27T06:46:05.745Z,97140.00
2023-01-27T06:48:33.813Z,97141.00
2023-01-27T06:51:01.086Z,97145.00
2023-01-27T06:53:27.902Z,97144.00
2023-01-27T06:56:00.160Z,97148.00
2023-01-27T06:58:27.791Z,97142.00
2023-01-27T07:00:54.785Z,97147.00
2023-01-27T07:03:21.848Z,97144.00
2023-01-27T07:05:48.697Z,97139.00
2023-01-27T07:08:15.590Z,97157.00
2023-01-27T07:10:42.452Z,97146.00
2023-01-27T07:13:13.015Z,97147.00
2023-01-27T07:15:39.919Z,97145.00
2023-01-27T07:18:07.180Z,97146.00
2023-01-27T07:20:34.465Z,97132.00
2023-01-27T07:23:05.892Z,97139.00
2023-01-27T07:25:34.896Z,97143.00
2023-01-27T07:28:03.231Z,97148.00
2023-01-27T07:30:30.678Z,97145.00
2023-01-27T07:33:11.196Z,97140.00
2023-01-27T07:35:39.602Z,97147.00
2023-01-27T07:38:07.462Z,97149.00
2023-01-27T07:40:36.006Z,97150.00
2023-01-27T07:43:03.900Z,97143.00
2023-01-27T07:45:30.998Z,97147.00
2023-01-27T07:48:03.146Z,97149.00
2023-01-27T07:50:30.591Z,97148.00
2023-01-27T07:53:05.490Z,97142.00
2023-01-27T07:55:33.424Z,97148.00
2023-01-27T07:58:00.575Z,97156.00
2023-01-27T08:00:28.956Z,97158.00
2023-01-27T08:02:57.447Z,97158.00
2023-01-27T08:05:25.211Z,97169.00
2023-01-27T08:07:54.014Z,97170.00
2023-01-27T08:10:22.108Z,97159.00
2023-01-27T08:12:49.009Z,97159.00
2023-01-27T08:15:18.460Z,97152.00
2023-01-27T08:17:56.834Z,97155.00
2023-01-27T08:20:27.174Z,97164.00
2023-01-27T08:22:54.196Z,97166.00
2023-01-27T08:25:21.828Z,97155.00
2023-01-27T08:27:53.977Z,97149.00
2023-01-27T08:30:21.526Z,97151.00
2023-01-27T08:32:48.608Z,97170.00
2023-01-27T08:35:15.533Z,97169.00
2023-01-27T08:37:42.453Z,97172.00
2023-01-27T08:40:10.566Z,97177.00
2023-01-27T08:42:37.521Z,97183.00
2023-01-27T08:45:04.902Z,97186.00
2023-01-27T08:47:31.646Z,97173.00
2023-01-27T08:49:58.479Z,97178.00
2023-01-27T08:52:27.577Z,97193.00
2023-01-27T08:54:54.367Z,97196.00
2023-01-27T08:57:21.157Z,97190.00
2023-01-27T08:59:47.896Z,97197.00
2023-01-27T09:02:14.782Z,97196.00
2023-01-27T09:04:44.221Z,97192.00
2023-01-27T09:07:11.640Z,97202.00
2023-01-27T09:09:38.468Z,97196.00
2023-01-27T09:12:05.348Z,97202.00
2023-01-27T09:14:32.186Z,97211.00
2023-01-27T09:16:58.997Z,97206.00
2023-01-27T09:19:25.815Z,97207.00
2023-01-27T09:21:52.602Z,97203.00
2023-01-27T09:24:20.521Z,97210.00
2023-01-27T09:26:47.406Z,97212.00
2023-01-27T09:29:14.332Z,97214.00
2023-01-27T09:31:41.317Z,97210.00
2023-01-27T09:34:08.183Z,97217.00
2023-01-27T09:36:41.805Z,97223.00
2023-01-27T09:39:09.775Z,97227.00
2023-01-27T09:42:22.589Z,97233.00
2023-01-27T09:45:20.451Z,97244.00
2023-01-27T09:48:02.173Z,97255.00
2023-01-27T09:51:08.505Z,97244.00
2023-01-27T09:54:21.559Z,97236.00
2023-01-27T09:57:06.928Z,97240.00
2023-01-27T10:00:29.331Z,97239.00
2023-01-27T10:03:17.534Z,97230.00
2023-01-27T10:06:06.435Z,97234.00
2023-01-27T10:09:03.432Z,97229.00
2023-01-27T10:11:54.069Z,97240.00
2023-01-27T10:14:42.349Z,97245.00
2023-01-27T10:17:42.379Z,97243.00
2023-01-27T10:20:46.618Z,97246.00
2023-01-27T10:23:37.260Z,97235.00
2023-01-27T10:26:43.027Z,97236.00
2023-01-27T10:29:17.559Z,97226.00
2023-01-27T10:32:02.490Z,97246.00
2023-01-27T10:34:38.724Z,97231.00
2023-01-27T10:37:20.917Z,97240.00
2023-01-27T10:39:56.536Z,97237.00
2023-01-27T10:42:38.129Z,97229.00
2023-01-27T10:45:31.046Z,97248.00
2023-01-27T10:48:41.881Z,97234.00
2023-01-27T10:51:28.844Z,97239.00
2023-01-27T10:54:15.203Z,97239.00
2023-01-27T10:56:51.812Z,97237.00
2023-01-27T11:00:10.988Z,97241.00
2023-01-27T11:02:59.214Z,97229.00
2023-01-27T11:05:42.566Z,97246.00
2023-01-27T11:08:36.036Z,97237.00
2023-01-27T11:11:25.892Z,97236.00
2023-01-27T11:14:05.073Z,97234.00
2023-01-27T11:16:38.043Z,97241.00
2023-01-27T11:19:44.501Z,97232.00
2023-01-27T11:22:22.864Z,97235.00
2023-01-27T11:25:14.788Z,97231.00
2023-01-27T11:27:57.139Z,97226.00
2023-01-27T11:30:52.531Z,97232.00
2023-01-27T11:33:44.233Z,97236.00
2023-01-27T11:36:12.323Z,97234.00
2023-01-27T11:38:39.666Z,97228.00
2023-01-27T11:41:07.445Z,97217.00
2023-01-27T11:43:37.140Z,97223.00
2023-01-27T11:46:13.973Z,97213.00
2023-01-27T11:48:50.743Z,97212.00
2023-01-27T11:51:24.767Z,97210.00
2023-01-27T11:54:10.996Z,97216.00
2023-01-27T11:56:39.685Z,97222.00
2023-01-27T11:59:18.652Z,97223.00
2023-01-27T12:02:04.052Z,97199.00
2023-01-27T12:05:10.122Z,97204.00
2023-01-27T12:08:03.385Z,97205.00
2023-01-27T12:10:40.175Z,97210.00
2023-01-27T12:13:22.273Z,97208.00
2023-01-27T12:16:03.861Z,97220.00
2023-01-27T12:18:34.908Z,97200.00
2023-01-27T12:21:08.807Z,97194.00
2023-01-27T12:23:49.907Z,97195.00
2023-01-27T12:26:39.629Z,97202.00
2023-01-27T12:29:39.487Z,97189.00
2023-01-27T12:32:17.263Z,97190.00
2023-01-27T12:34:52.375Z,97200.00
2023-01-27T12:37:28.983Z,97205.00
2023-01-27T12:40:03.476Z,97200.00
2023-01-27T12:43:13.244Z,97181.00
2023-01-27T12:45:43.397Z,97185.00
2023-01-27T12:48:10.742Z,97190.00
2023-01-27T12:50:41.181Z,97189.00
2023-01-27T12:53:17.935Z,97184.00
2023-01-27T12:56:04.805Z,97191.00
2023-01-27T12:58:41.140Z,97183.00
2023-01-27T13:01:20.586Z,97186.00
2023-01-27T13:03:55.924Z,97195.00
2023-01-27T13:06:47.708Z,97203.00
2023-01-27T13:09:31.887Z,97197.00
2023-01-27T13:12:05.315Z,97194.00
2023-01-27T13:14:40.847Z,97189.00
2023-01-27T13:17:50.153Z,97193.00
2023-01-27T13:20:32.982Z,97200.00
2023-01-27T13:23:24.486Z,97205.00
2023-01-27T13:26:08.581Z,97198.00
2023-01-27T13:29:02.773Z,97198.00
2023-01-27T13:31:41.938Z,97204.00
2023-01-27T13:34:19.431Z,97200.00
2023-01-27T13:36:57.294Z,97202.00
2023-01-27T13:39:54.772Z,97190.00
2023-01-27T13:43:14.193Z,97197.00
2023-01-27T13:46:24.316Z,97206.00
2023-01-27T13:48:55.779Z,97208.00
2023-01-27T13:51:31.057Z,97206.00
2023-01-27T13:54:04.768Z,97214.00
2023-01-27T13:57:13.824Z,97212.00
2023-01-27T14:00:44.386Z,97223.00
2023-01-27T14:03:39.592Z,97221.00
2023-01-27T14:06:54.537Z,97217.00
2023-01-27T14:09:53.105Z,97218.00
2023-01-27T14:12:46.589Z,97227.00
2023-01-27T14:15:26.387Z,97218.00
2023-01-27T14:18:29.170Z,97238.00
2023-01-27T14:21:08.043Z,97230.00
2023-01-27T14:24:02.362Z,97219.00
2023-01-27T14:27:00.943Z,97228.00
2023-01-27T14:29:55.408Z,97225.00
2023-01-27T14:33:06.675Z,97229.00
2023-01-27T14:36:06.934Z,97238.00
2023-01-27T14:38:48.253Z,97238.00
2023-01-27T14:41:46.155Z,97236.00
2023-01-27T14:44:43.975Z,97240.00
2023-01-27T14:48:18.529Z,97253.00
2023-01-27T14:51:22.788Z,97244.00
2023-01-27T14:54:46.061Z,97249.00
2023-01-27T14:58:07.414Z,97247.00
2023-01-27T15:01:08.838Z,97255.00
2023-01-27T15:04:21.551Z,97249.00
2023-01-27T15:07:03.727Z,97260.00
2023-01-27T15:09:49.544Z,97262.00
2023-01-27T15:12:37.442Z,97253.00
2023-01-27T15:15:20.233Z,97261.00
2023-01-27T15:18:17.218Z,97240.00
2023-01-27T15:21:04.168Z,97259.00
2023-01-27T15:23:47.079Z,97274.00
2023-01-27T15:26:17.657Z,97249.00
2023-01-27T15:28:45.774Z,97263.00
2023-01-27T15:31:17.031Z,97269.00
2023-01-27T15:33:53.276Z,97273.00
2023-01-27T15:36:32.722Z,97268.00
2023-01-27T15:39:09.745Z,97258.00
2023-01-27T15:42:01.498Z,97266.00
2023-01-27T15:45:01.049Z,97272.00
2023-01-27T15:47:37.317Z,97248.00
2023-01-27T15:50:18.901Z,97267.00
2023-01-27T15:52:50.154Z,97267.00
2023-01-27T15:55:34.970Z,97265.00
2023-01-27T15:58:17.479Z,97267.00
2023-01-27T16:00:52.904Z,97263.00
2023-01-27T16:03:38.255Z,97269.00
2023-01-27T16:06:19.403Z,97273.00
2023-01-27T16:09:00.353Z,97265.00
2023-01-27T16:11:29.834Z,97272.00
2023-01-27T16:14:12.385Z,97283.00
2023-01-27T16:16:44.056Z,97273.00
2023-01-27T16:19:11.235Z,97281.00
2023-01-27T16:21:49.068Z,97283.00
2023-01-27T16:24:42.098Z,97286.00
2023-01-27T16:27:52.059Z,97288.00
2023-01-27T16:30:27.188Z,97298.00
2023-01-27T16:33:14.886Z,97302.00
2023-01-27T16:35:53.156Z,97303.00
2023-01-27T16:38:28.125Z,97307.00
2023-01-27T16:41:01.463Z,97300.00
2023-01-27T16:43:34.780Z,97301.00
2023-01-27T16:46:02.418Z,97302.00
2023-01-27T16:48:45.029Z,97306.00
2023-01-27T16:51:19.396Z,97302.00
2023-01-27T16:53:50.011Z,97309.00
2023-01-27T16:56:35.068Z,97311.00
2023-01-27T16:59:09.005Z,97307.00
2023-01-27T17:01:53.869Z,97306.00
2023-01-27T17:04:25.394Z,97310.00
2023-01-27T17:07:18.629Z,97311.00
2023-01-27T17:09:59.942Z,97309.00
2023-01-27T17:12:40.822Z,97305.00
2023-01-27T17:15:36.998Z,97306.00
2023-01-27T17:18:10.208Z,97309.00
2023-01-27T17:20:41.723Z,97307.00
2023-01-27T17:23:32.131Z,97300.00
2023-01-27T17:26:11.245Z,97311.00
2023-01-27T17:28:38.856Z,97299.00
2023-01-27T17:31:08.303Z,97310.00
2023-01-27T17:33:37.309Z,97314.00
2023-01-27T17:36:11.215Z,97320.00
2023-01-27T17:38:57.445Z,97327.00
2023-01-27T17:41:36.733Z,97322.00
2023-01-27T17:44:14.264Z,97336.00
2023-01-27T17:46:41.861Z,97330.00
2023-01-27T17:49:18.008Z,97328.00
2023-01-27T17:51:53.515Z,97332.00
2023-01-27T17:54:35.358Z,97339.00
2023-01-27T17:57:24.224Z,97334.00
2023-01-27T18:00:16.907Z,97338.00
2023-01-27T18:02:58.232Z,97340.00
2023-01-27T18:05:29.847Z,97343.00
2023-01-27T18:07:56.713Z,97350.00
2023-01-27T18:10:45.058Z,97347.00
2023-01-27T18:13:17.979Z,97351.00
2023-01-27T18:16:01.851Z,97350.00
2023-01-27T18:18:34.517Z,97352.00
2023-01-27T18:21:01.327Z,97355.00
2023-01-27T18:23:32.715Z,97361.00
2023-01-27T18:26:37.998Z,97363.00
2023-01-27T18:29:26.323Z,97352.00
2023-01-27T18:32:08.056Z,97361.00
2023-01-27T18:34:50.687Z,97363.00
2023-01-27T18:37:27.657Z,97370.00
2023-01-27T18:39:57.048Z,97361.00
2023-01-27T18:42:25.724Z,97378.00
2023-01-27T18:44:53.253Z,97367.00
2023-01-27T18:47:20.035Z,97373.00
2023-01-27T18:49:58.198Z,97380.00
2023-01-27T18:52:25.078Z,97369.00
2023-01-27T18:55:17.474Z,97369.00
2023-01-27T18:57:47.001Z,97365.00
2023-01-27T19:00:20.560Z,97374.00
2023-01-27T19:02:51.499Z,97371.00
2023-01-27T19:05:27.149Z,97373.00
2023-01-27T19:07:54.015Z,97383.00
2023-01-27T19:10:25.078Z,97369.00
2023-01-27T19:12:53.065Z,97375.00
2023-01-27T19:15:23.890Z,97384.00
2023-01-27T19:17:53.971Z,97379.00
2023-01-27T19:20:25.767Z,97378.00
2023-01-27T19:22:54.154Z,97380.00
2023-01-27T19:25:22.333Z,97368.00
2023-01-27T19:27:54.639Z,97369.00
2023-01-27T19:30:37.164Z,97358.00
2023-01-27T19:33:18.217Z,97363.00
2023-01-27T19:35:55.900Z,97359.00
2023-01-27T19:38:26.053Z,97364.00
2023-01-27T19:40:53.079Z,97361.00
2023-01-27T19:43:19.917Z,97366.00
2023-01-27T19:45:48.950Z,97375.00
2023-01-27T19:48:22.579Z,97385.00
2023-01-27T19:50:51.083Z,97377.00
2023-01-27T19:53:20.017Z,97384.00
2023-01-27T19:55:47.954Z,97396.00
2023-01-27T19:58:25.382Z,97391.00
2023-01-27T20:00:53.580Z,97400.00
2023-01-27T20:03:21.070Z,97404.00
2023-01-27T20:05:47.830Z,97402.00
2023-01-27T20:08:20.286Z,97405.00
2023-01-27T20:10:47.708Z,97410.00
2023-01-27T20:13:18.898Z,97412.00
2023-01-27T20:15:46.975Z,97412.00
2023-01-27T20:18:16.405Z,97405.00
2023-01-27T20:20:44.474Z,97417.00
2023-01-27T20:23:15.700Z,97414.00
2023-01-27T20:25:42.823Z,97416.00
2023-01-27T20:28:10.597Z,97416.00
2023-01-27T20:30:38.679Z,97414.00
2023-01-27T20:33:05.551Z,97425.00
2023-01-27T20:35:32.404Z,97420.00
2023-01-27T20:37:59.253Z,97416.00
2023-01-27T20:40:30.126Z,97425.00
2023-01-27T20:42:56.905Z,97427.00
2023-01-27T20:45:23.737Z,97427.00
2023-01-27T20:47:53.440Z,97429.00
2023-01-27T20:50:22.303Z,97426.00
2023-01-27T20:52:50.303Z,97420.00
2023-01-27T20:55:19.411Z,97426.00
2023-01-27T20:57:47.509Z,97428.00
2023-01-27T21:00:19.996Z,97426.00
2023-01-27T21:02:47.516Z,97417.00
2023-01-27T21:05:15.193Z,97425.00
2023-01-27T21:07:42.240Z,97416.00
2023-01-27T21:10:09.983Z,97417.00
2023-01-27T21:12:36.811Z,97411.00
2023-01-27T21:15:09.366Z,97419.00
2023-01-27T21:17:36.176Z,97409.00
2023-01-27T21:20:04.379Z,97408.00
2023-01-27T21:22:31.238Z,97421.00
2023-01-27T21:24:58.068Z,97405.00
2023-01-27T21:27:24.878Z,97426.00
2023-01-27T21:29:52.785Z,97423.00
2023-01-27T21:32:19.607Z,97419.00
2023-01-27T21:34:46.372Z,97422.00
2023-01-27T21:37:13.154Z,97426.00
2023-01-27T21:39:39.955Z,97432.00
2023-01-27T21:42:06.767Z,97432.00
2023-01-27T21:44:51.966Z,97422.00
2023-01-27T21:47:19.547Z,97430.00
2023-01-27T21:50:02.890Z,97431.00
2023-01-27T21:52:38.951Z,97434.00
2023-01-27T21:55:19.976Z,97438.00
2023-01-27T21:57:50.960Z,97435.00
2023-01-27T22:00:28.941Z,97435.00
2023-01-27T22:03:01.695Z,97434.00
2023-01-27T22:05:30.947Z,97432.00
2023-01-27T22:07:58.889Z,97424.00
2023-01-27T22:10:29.344Z,97418.00
2023-01-27T22:13:04.012Z,97425.00
2023-01-27T22:15:31.899Z,97420.00
2023-01-27T22:17:59.653Z,97427.00
2023-01-27T22:20:27.811Z,97425.00
2023-01-27T22:22:55.143Z,97419.00
2023-01-27T22:25:22.493Z,97423.00
2023-01-27T22:27:49.319Z,97418.00
2023-01-27T22:30:19.632Z,97413.00
2023-01-27T22:32:47.945Z,97430.00
2023-01-27T22:35:16.912Z,97416.00
2023-01-27T22:37:44.740Z,97422.00
2023-01-27T22:40:13.013Z,97421.00
2023-01-27T22:42:40.139Z,97424.00
2023-01-27T22:45:10.896Z,97424.00
2023-01-27T22:47:37.817Z,97429.00
2023-01-27T22:50:06.216Z,97423.00
2023-01-27T22:52:38.716Z,97423.00
2023-01-27T22:55:07.549Z,97425.00
2023-01-27T22:57:34.642Z,97421.00
2023-01-27T23:00:01.813Z,97432.00
2023-01-27T23:02:29.788Z,97423.00
2023-01-27T23:04:57.934Z,97427.00
2023-01-27T23:07:25.611Z,97417.00
2023-01-27T23:09:52.454Z,97421.00
2023-01-27T23:12:19.212Z,97413.00
2023-01-27T23:14:45.998Z,97417.00
2023-01-27T23:17:12.785Z,97409.00
2023-01-27T23:19:39.557Z,97403.00
2023-01-27T23:22:06.380Z,97406.00
2023-01-27T23:24:33.578Z,97409.00
2023-01-27T23:27:00.354Z,97409.00
2023-01-27T23:29:29.234Z,97406.00
2023-01-27T23:31:56.320Z,97410.00
2023-01-27T23:34:23.519Z,97406.00
2023-01-27T23:36:50.321Z,97410.00
2023-01-27T23:39:17.134Z,97409.00
2023-01-27T23:41:43.920Z,97411.00
2023-01-27T23:44:12.456Z,97409.00
2023-01-27T23:46:39.488Z,97411.00
2023-01-27T23:49:07.710Z,97408.00
2023-01-27T23:51:34.535Z,97409.00
2023-01-27T23:54:01.973Z,97405.00
2023-01-27T23:56:29.040Z,97408.00
2023-01-27T23:58:55.797Z,97411.00
